sensor_id;sensor_type;location;lat;lon;timestamp;pressure;altitude;pressure_sealevel;temperature;humidity
45789;BME280;31492;54.856;26.318;2022-09-11T02:14:04;996.7;;;11.3;100
45789;BME280;31492;54.856;26.318;2022-09-11T02:19:00;993.5;;;9.5;100
45789;BME280;31492;54.856;26.318;2022-09-11T02:23:59;993.4;;;9.6;100
45789;BME280;31492;54.856;26.318;2022-09-11T02:29:00;993.4;;;9.5;100
45789;BME280;31492;54.856;26.318;2022-09-11T02:33:58;993.3;;;9.5;100
45789;BME280;31492;54.856;26.318;2022-09-11T02:44:07;993.1;;;9.5;100
45789;BME280;31492;54.856;26.318;2022-09-11T02:49:06;993.1;;;9.4;100
45789;BME280;31492;54.856;26.318;2022-09-11T02:55:08;993;;;9.4;100
45789;BME280;31492;54.856;26.318;2022-09-11T02:59:02;992.9;;;9.5;100
45789;BME280;31492;54.856;26.318;2022-09-11T03:04:04;992.8;;;9.5;100
45789;BME280;31492;54.856;26.318;2022-09-11T03:08:54;992.8;;;9.4;100
45789;BME280;31492;54.856;26.318;2022-09-11T03:13:58;992.7;;;9.4;100
45789;BME280;31492;54.856;26.318;2022-09-11T03:19:01;992.6;;;9.4;100
45789;BME280;31492;54.856;26.318;2022-09-11T03:24:00;992.6;;;9.4;100
45789;BME280;31492;54.856;26.318;2022-09-11T03:29:01;992.5;;;9.4;100
45789;BME280;31492;54.856;26.318;2022-09-11T03:33:59;992.5;;;9.5;100
45789;BME280;31492;54.856;26.318;2022-09-11T03:38:56;992.4;;;9.4;100
45789;BME280;31492;54.856;26.318;2022-09-11T03:44:02;992.4;;;9.4;100
45789;BME280;31492;54.856;26.318;2022-09-11T03:49:00;992.3;;;9.4;100
45789;BME280;31492;54.856;26.318;2022-09-11T03:54:01;992.3;;;9.3;100
45789;BME280;31492;54.856;26.318;2022-09-11T03:59:03;992.2;;;9.3;100
45789;BME280;31492;54.856;26.318;2022-09-11T04:04:01;992.1;;;9.3;100
45789;BME280;31492;54.856;26.318;2022-09-11T04:09:03;992;;;9.3;100
45789;BME280;31492;54.856;26.318;2022-09-11T04:14:01;992;;;9.4;100
45789;BME280;31492;54.856;26.318;2022-09-11T04:19:01;991.9;;;9.4;100
45789;BME280;31492;54.856;26.318;2022-09-11T04:24:05;991.9;;;9.4;100
45789;BME280;31492;54.856;26.318;2022-09-11T04:28:57;991.8;;;9.4;100
45789;BME280;31492;54.856;26.318;2022-09-11T04:34:03;991.7;;;9.5;100
45789;BME280;31492;54.856;26.318;2022-09-11T04:38:59;991.6;;;9.4;100
45789;BME280;31492;54.856;26.318;2022-09-11T04:44:02;991.6;;;9.4;100
45789;BME280;31492;54.856;26.318;2022-09-11T04:48:57;991.5;;;9.5;100
45789;BME280;31492;54.856;26.318;2022-09-11T04:53:57;991.5;;;9.5;100
45789;BME280;31492;54.856;26.318;2022-09-11T04:59:04;991.4;;;9.5;100
45789;BME280;31492;54.856;26.318;2022-09-11T05:03:57;991.4;;;9.5;100
45789;BME280;31492;54.856;26.318;2022-09-11T05:09:03;991.3;;;9.5;100
45789;BME280;31492;54.856;26.318;2022-09-11T05:14:02;991.3;;;9.5;100
45789;BME280;31492;54.856;26.318;2022-09-11T05:19:05;991.2;;;9.5;100
45789;BME280;31492;54.856;26.318;2022-09-11T05:23:59;991.1;;;9.5;100
45789;BME280;31492;54.856;26.318;2022-09-11T05:29:04;991.1;;;9.5;100
45789;BME280;31492;54.856;26.318;2022-09-11T05:34:01;991;;;9.5;100
45789;BME280;31492;54.856;26.318;2022-09-11T05:39:03;991;;;9.6;100
45789;BME280;31492;54.856;26.318;2022-09-11T05:44:05;990.9;;;9.6;100
45789;BME280;31492;54.856;26.318;2022-09-11T05:48:56;990.9;;;9.6;100
45789;BME280;31492;54.856;26.318;2022-09-11T05:53:58;990.9;;;9.6;100
45789;BME280;31492;54.856;26.318;2022-09-11T05:58:51;990.9;;;9.6;100
45789;BME280;31492;54.856;26.318;2022-09-11T06:03:58;990.9;;;9.7;100
45789;BME280;31492;54.856;26.318;2022-09-11T06:08:56;990.9;;;9.8;100
45789;BME280;31492;54.856;26.318;2022-09-11T06:13:59;990.8;;;9.8;100
45789;BME280;31492;54.856;26.318;2022-09-11T06:19:05;990.8;;;9.8;100
45789;BME280;31492;54.856;26.318;2022-09-11T06:24:03;990.8;;;9.8;100
45789;BME280;31492;54.856;26.318;2022-09-11T06:29:01;990.8;;;9.9;100
45789;BME280;31492;54.856;26.318;2022-09-11T06:34:05;990.8;;;9.9;100
45789;BME280;31492;54.856;26.318;2022-09-11T06:39:03;990.7;;;9.9;100
45789;BME280;31492;54.856;26.318;2022-09-11T06:44:03;990.7;;;9.9;100
45789;BME280;31492;54.856;26.318;2022-09-11T06:49:01;990.7;;;10;100
45789;BME280;31492;54.856;26.318;2022-09-11T06:54:03;990.7;;;10;100
45789;BME280;31492;54.856;26.318;2022-09-11T06:59:05;990.7;;;10.1;100
45789;BME280;31492;54.856;26.318;2022-09-11T07:04:01;990.7;;;10.1;100
45789;BME280;31492;54.856;26.318;2022-09-11T07:09:01;990.6;;;10.2;100
45789;BME280;31492;54.856;26.318;2022-09-11T07:14:03;990.6;;;10.3;100
45789;BME280;31492;54.856;26.318;2022-09-11T07:18:59;990.6;;;10.4;100
45789;BME280;31492;54.856;26.318;2022-09-11T07:24:05;990.5;;;10.5;100
45789;BME280;31492;54.856;26.318;2022-09-11T07:29:01;990.4;;;10.6;100
45789;BME280;31492;54.856;26.318;2022-09-11T07:34:03;990.4;;;10.7;100
45789;BME280;31492;54.856;26.318;2022-09-11T07:39:05;990.5;;;10.7;100
45789;BME280;31492;54.856;26.318;2022-09-11T07:44:01;990.4;;;10.8;100
45789;BME280;31492;54.856;26.318;2022-09-11T07:48:54;990.4;;;10.9;100
45789;BME280;31492;54.856;26.318;2022-09-11T07:54:03;990.4;;;11;100
45789;BME280;31492;54.856;26.318;2022-09-11T07:59:05;990.3;;;11.1;100
45789;BME280;31492;54.856;26.318;2022-09-11T08:04:04;990.3;;;11;100
45789;BME280;31492;54.856;26.318;2022-09-11T08:09:04;990.3;;;11;100
45789;BME280;31492;54.856;26.318;2022-09-11T08:14:05;990.3;;;11.1;100
45789;BME280;31492;54.856;26.318;2022-09-11T08:19:01;990.3;;;11.2;100
45789;BME280;31492;54.856;26.318;2022-09-11T08:24:01;990.2;;;11.3;100
45789;BME280;31492;54.856;26.318;2022-09-11T08:29:01;990.2;;;11.3;100
45789;BME280;31492;54.856;26.318;2022-09-11T08:33:51;990.2;;;11.4;100
45789;BME280;31492;54.856;26.318;2022-09-11T08:39:01;990.2;;;11.4;100
45789;BME280;31492;54.856;26.318;2022-09-11T08:44:00;990.2;;;11.5;100
45789;BME280;31492;54.856;26.318;2022-09-11T08:49:07;990.2;;;11.5;100
45789;BME280;31492;54.856;26.318;2022-09-11T08:54:03;990.2;;;11.6;100
45789;BME280;31492;54.856;26.318;2022-09-11T08:59:04;990.2;;;11.7;100
45789;BME280;31492;54.856;26.318;2022-09-11T09:04:13;990.2;;;11.7;100
45789;BME280;31492;54.856;26.318;2022-09-11T09:09:24;990.2;;;11.8;100
45789;BME280;31492;54.856;26.318;2022-09-11T09:14:00;990.2;;;11.8;100
45789;BME280;31492;54.856;26.318;2022-09-11T09:19:04;990.1;;;11.9;100
45789;BME280;31492;54.856;26.318;2022-09-11T09:24:04;990.1;;;11.9;100
45789;BME280;31492;54.856;26.318;2022-09-11T09:29:03;990.1;;;12;100
45789;BME280;31492;54.856;26.318;2022-09-11T09:34:03;990.1;;;12.1;100
45789;BME280;31492;54.856;26.318;2022-09-11T09:38:59;990.1;;;12.1;100
45789;BME280;31492;54.856;26.318;2022-09-11T09:49:03;990.2;;;12.2;100
45789;BME280;31492;54.856;26.318;2022-09-11T09:54:01;990.2;;;12.2;100
45789;BME280;31492;54.856;26.318;2022-09-11T09:59:05;990.2;;;12.3;100
45789;BME280;31492;54.856;26.318;2022-09-11T10:04:09;990.2;;;12.3;100
45789;BME280;31492;54.856;26.318;2022-09-11T10:08:59;990.2;;;12.3;100
45789;BME280;31492;54.856;26.318;2022-09-11T10:14:03;990.2;;;12.2;100
45789;BME280;31492;54.856;26.318;2022-09-11T10:19:07;990.2;;;12.2;100
45789;BME280;31492;54.856;26.318;2022-09-11T10:24:22;990.2;;;12.2;100
45789;BME280;31492;54.856;26.318;2022-09-11T10:29:05;990.2;;;12.2;100
45789;BME280;31492;54.856;26.318;2022-09-11T10:34:01;990.2;;;12.2;100
45789;BME280;31492;54.856;26.318;2022-09-11T10:39:05;990.2;;;12.3;100
45789;BME280;31492;54.856;26.318;2022-09-11T10:44:05;990.2;;;12.4;100
45789;BME280;31492;54.856;26.318;2022-09-11T10:49:07;990.1;;;12.5;100
45789;BME280;31492;54.856;26.318;2022-09-11T10:54:05;990.1;;;12.5;100
45789;BME280;31492;54.856;26.318;2022-09-11T10:58:39;990.2;;;12.5;100
45789;BME280;31492;54.856;26.318;2022-09-11T11:04:07;990.2;;;12.6;100
45789;BME280;31492;54.856;26.318;2022-09-11T11:09:06;990.2;;;12.6;100
45789;BME280;31492;54.856;26.318;2022-09-11T11:19:09;990.3;;;12.6;100
45789;BME280;31492;54.856;26.318;2022-09-11T11:24:09;990.3;;;12.6;100
45789;BME280;31492;54.856;26.318;2022-09-11T11:29:10;990.3;;;12.6;100
45789;BME280;31492;54.856;26.318;2022-09-11T11:34:09;990.3;;;12.5;100
45789;BME280;31492;54.856;26.318;2022-09-11T11:39:35;990.4;;;12.5;100
45789;BME280;31492;54.856;26.318;2022-09-11T11:44:05;990.4;;;12.5;100
45789;BME280;31492;54.856;26.318;2022-09-11T11:49:04;990.4;;;12.6;100
45789;BME280;31492;54.856;26.318;2022-09-11T11:54:04;990.4;;;12.6;100
45789;BME280;31492;54.856;26.318;2022-09-11T11:59:35;990.4;;;12.6;100
45789;BME280;31492;54.856;26.318;2022-09-11T12:04:11;990.4;;;12.6;100
45789;BME280;31492;54.856;26.318;2022-09-11T12:09:01;990.4;;;12.7;100
45789;BME280;31492;54.856;26.318;2022-09-11T12:14:01;990.3;;;12.7;100
45789;BME280;31492;54.856;26.318;2022-09-11T12:19:04;990.3;;;12.8;100
45789;BME280;31492;54.856;26.318;2022-09-11T12:24:10;990.3;;;12.8;100
45789;BME280;31492;54.856;26.318;2022-09-11T12:34:01;990.3;;;12.9;100
45789;BME280;31492;54.856;26.318;2022-09-11T12:39:00;990.3;;;13;100
45789;BME280;31492;54.856;26.318;2022-09-11T12:44:16;990.3;;;13.1;100
45789;BME280;31492;54.856;26.318;2022-09-11T12:49:06;990.4;;;13.2;100
45789;BME280;31492;54.856;26.318;2022-09-11T12:54:11;990.4;;;13.2;100
45789;BME280;31492;54.856;26.318;2022-09-11T12:59:04;990.4;;;13.2;100
45789;BME280;31492;54.856;26.318;2022-09-11T13:04:00;990.4;;;13.2;100
45789;BME280;31492;54.856;26.318;2022-09-11T13:09:03;990.4;;;13.3;100
45789;BME280;31492;54.856;26.318;2022-09-11T13:14:37;990.4;;;13.4;100
45789;BME280;31492;54.856;26.318;2022-09-11T13:19:10;990.3;;;13.5;100
45789;BME280;31492;54.856;26.318;2022-09-11T13:24:03;990.3;;;13.6;100
45789;BME280;31492;54.856;26.318;2022-09-11T13:29:03;990.3;;;13.6;100
45789;BME280;31492;54.856;26.318;2022-09-11T13:34:04;990.4;;;13.7;100
45789;BME280;31492;54.856;26.318;2022-09-11T13:39:01;990.4;;;13.7;100
45789;BME280;31492;54.856;26.318;2022-09-11T13:44:01;990.4;;;13.6;100
45789;BME280;31492;54.856;26.318;2022-09-11T13:49:33;990.5;;;13.5;100
45789;BME280;31492;54.856;26.318;2022-09-11T13:54:02;990.5;;;13.4;100
45789;BME280;31492;54.856;26.318;2022-09-11T14:00:34;990.5;;;13.4;100
45789;BME280;31492;54.856;26.318;2022-09-11T14:04:06;990.5;;;13.5;100
45789;BME280;31492;54.856;26.318;2022-09-11T14:09:05;990.5;;;13.4;100
45789;BME280;31492;54.856;26.318;2022-09-11T14:14:07;990.5;;;13.3;100
45789;BME280;31492;54.856;26.318;2022-09-11T14:19:07;990.4;;;13.4;100
45789;BME280;31492;54.856;26.318;2022-09-11T14:24:03;990.5;;;13.4;100
45789;BME280;31492;54.856;26.318;2022-09-11T14:29:04;990.5;;;13.4;100
45789;BME280;31492;54.856;26.318;2022-09-11T14:34:13;990.6;;;13.2;100
45789;BME280;31492;54.856;26.318;2022-09-11T14:39:01;990.6;;;13.1;100
45789;BME280;31492;54.856;26.318;2022-09-11T14:44:01;990.6;;;13;100
45789;BME280;31492;54.856;26.318;2022-09-11T14:49:01;990.7;;;13;100
45789;BME280;31492;54.856;26.318;2022-09-11T14:54:01;990.7;;;12.9;100
45789;BME280;31492;54.856;26.318;2022-09-11T14:59:05;990.7;;;12.9;100
45789;BME280;31492;54.856;26.318;2022-09-11T15:04:01;990.8;;;12.9;100
45789;BME280;31492;54.856;26.318;2022-09-11T15:09:05;990.8;;;12.9;100
45789;BME280;31492;54.856;26.318;2022-09-11T15:14:03;990.9;;;12.9;100
45789;BME280;31492;54.856;26.318;2022-09-11T15:19:01;990.9;;;12.8;100
45789;BME280;31492;54.856;26.318;2022-09-11T15:24:03;990.9;;;12.8;100
45789;BME280;31492;54.856;26.318;2022-09-11T15:29:01;991;;;12.9;100
45789;BME280;31492;54.856;26.318;2022-09-11T15:44:07;991;;;12.8;100
45789;BME280;31492;54.856;26.318;2022-09-11T15:48:53;991.1;;;12.7;100
45789;BME280;31492;54.856;26.318;2022-09-11T15:53:59;991.1;;;12.7;100
45789;BME280;31492;54.856;26.318;2022-09-11T15:59:01;991.1;;;12.7;100
45789;BME280;31492;54.856;26.318;2022-09-11T16:04:04;991.1;;;12.5;100
45789;BME280;31492;54.856;26.318;2022-09-11T16:09:00;991.2;;;12.5;100
45789;BME280;31492;54.856;26.318;2022-09-11T16:13:59;991.2;;;12.4;100
45789;BME280;31492;54.856;26.318;2022-09-11T16:18:59;991.3;;;12.3;100
45789;BME280;31492;54.856;26.318;2022-09-11T16:24:05;991.3;;;12.3;100
45789;BME280;31492;54.856;26.318;2022-09-11T16:29:06;991.3;;;12.3;100
45789;BME280;31492;54.856;26.318;2022-09-11T16:34:01;991.3;;;12.3;100
45789;BME280;31492;54.856;26.318;2022-09-11T16:39:05;991.4;;;12.2;100
45789;BME280;31492;54.856;26.318;2022-09-11T16:44:05;991.4;;;12.3;100
45789;BME280;31492;54.856;26.318;2022-09-11T16:49:05;991.4;;;12.3;100
45789;BME280;31492;54.856;26.318;2022-09-11T16:54:03;991.5;;;12.2;100
45789;BME280;31492;54.856;26.318;2022-09-11T16:59:03;991.5;;;12.2;100
45789;BME280;31492;54.856;26.318;2022-09-11T17:04:03;991.6;;;12.1;100
45789;BME280;31492;54.856;26.318;2022-09-11T17:09:01;991.6;;;12.1;100
45789;BME280;31492;54.856;26.318;2022-09-11T17:14:01;991.6;;;12;100
45789;BME280;31492;54.856;26.318;2022-09-11T17:19:03;991.7;;;11.9;100
45789;BME280;31492;54.856;26.318;2022-09-11T17:24:02;991.7;;;12;100
45789;BME280;31492;54.856;26.318;2022-09-11T17:29:05;991.8;;;12;100
45789;BME280;31492;54.856;26.318;2022-09-11T17:33:59;991.8;;;11.9;100
45789;BME280;31492;54.856;26.318;2022-09-11T17:39:03;991.8;;;12;100
45789;BME280;31492;54.856;26.318;2022-09-11T17:44:03;991.8;;;12;100
45789;BME280;31492;54.856;26.318;2022-09-11T17:49:01;991.9;;;11.9;100
45789;BME280;31492;54.856;26.318;2022-09-11T17:54:05;991.9;;;11.9;100
45789;BME280;31492;54.856;26.318;2022-09-11T17:59:01;991.9;;;11.9;100
45789;BME280;31492;54.856;26.318;2022-09-11T18:04:03;991.9;;;11.8;100
45789;BME280;31492;54.856;26.318;2022-09-11T18:09:00;992;;;11.8;100
45789;BME280;31492;54.856;26.318;2022-09-11T18:14:03;992;;;11.7;100
45789;BME280;31492;54.856;26.318;2022-09-11T18:19:03;992;;;11.6;100
45789;BME280;31492;54.856;26.318;2022-09-11T18:24:01;992;;;11.6;100
45789;BME280;31492;54.856;26.318;2022-09-11T18:29:00;992.1;;;11.5;100
45789;BME280;31492;54.856;26.318;2022-09-11T18:34:03;992.1;;;11.5;100
45789;BME280;31492;54.856;26.318;2022-09-11T18:38:59;992.2;;;11.5;100
45789;BME280;31492;54.856;26.318;2022-09-11T18:43:59;992.3;;;11.4;100
45789;BME280;31492;54.856;26.318;2022-09-11T18:49:01;992.3;;;11.4;100
45789;BME280;31492;54.856;26.318;2022-09-11T18:54:03;992.3;;;11.3;100
45789;BME280;31492;54.856;26.318;2022-09-11T18:59:05;992.3;;;11.1;100
45789;BME280;31492;54.856;26.318;2022-09-11T19:04:06;992.4;;;11.1;100
45789;BME280;31492;54.856;26.318;2022-09-11T19:09:03;992.4;;;11.1;100
45789;BME280;31492;54.856;26.318;2022-09-11T19:13:53;992.4;;;11;100
45789;BME280;31492;54.856;26.318;2022-09-11T19:19:03;992.4;;;10.9;100
45789;BME280;31492;54.856;26.318;2022-09-11T19:24:03;992.4;;;11;100
45789;BME280;31492;54.856;26.318;2022-09-11T19:29:03;992.4;;;11.2;100
45789;BME280;31492;54.856;26.318;2022-09-11T19:34:03;992.4;;;11.2;100
45789;BME280;31492;54.856;26.318;2022-09-11T19:38:59;992.5;;;11.1;100
45789;BME280;31492;54.856;26.318;2022-09-11T19:44:04;992.5;;;11.1;100
45789;BME280;31492;54.856;26.318;2022-09-11T19:49:03;992.5;;;11.1;100
45789;BME280;31492;54.856;26.318;2022-09-11T19:54:03;992.4;;;11.2;100
45789;BME280;31492;54.856;26.318;2022-09-11T19:58:59;992.4;;;11.2;100
45789;BME280;31492;54.856;26.318;2022-09-11T20:03:52;992.3;;;11.2;100
45789;BME280;31492;54.856;26.318;2022-09-11T20:09:03;992.3;;;11.3;100
45789;BME280;31492;54.856;26.318;2022-09-11T20:13:49;992.2;;;11.2;100
45789;BME280;31492;54.856;26.318;2022-09-11T20:19:03;992.3;;;11;100
45789;BME280;31492;54.856;26.318;2022-09-11T20:24:05;992.5;;;10.9;100
45789;BME280;31492;54.856;26.318;2022-09-11T20:29:06;992.5;;;10.8;100
45789;BME280;31492;54.856;26.318;2022-09-11T20:34:03;992.6;;;10.7;100
45789;BME280;31492;54.856;26.318;2022-09-11T20:39:01;992.6;;;10.7;100
45789;BME280;31492;54.856;26.318;2022-09-11T20:44:03;992.6;;;10.6;100
45789;BME280;31492;54.856;26.318;2022-09-11T20:49:05;992.6;;;10.5;100
45789;BME280;31492;54.856;26.318;2022-09-11T20:54:01;992.6;;;10.3;100
45789;BME280;31492;54.856;26.318;2022-09-11T20:58:17;992.7;;;10.3;100
45789;BME280;31492;54.856;26.318;2022-09-11T21:04:03;992.6;;;10.3;100
45789;BME280;31492;54.856;26.318;2022-09-11T21:09:05;992.6;;;10.1;100
45789;BME280;31492;54.856;26.318;2022-09-11T21:14:04;992.7;;;9.9;100
45789;BME280;31492;54.856;26.318;2022-09-11T21:19:02;992.8;;;9.9;100
45789;BME280;31492;54.856;26.318;2022-09-11T21:23:56;992.9;;;9.8;100
45789;BME280;31492;54.856;26.318;2022-09-11T21:29:06;992.9;;;9.8;100
45789;BME280;31492;54.856;26.318;2022-09-11T21:34:08;992.9;;;9.9;100
45789;BME280;31492;54.856;26.318;2022-09-11T21:39:01;992.9;;;9.9;100
45789;BME280;31492;54.856;26.318;2022-09-11T21:44:05;993;;;10.1;100
45789;BME280;31492;54.856;26.318;2022-09-11T21:49:08;993;;;10.2;100
45789;BME280;31492;54.856;26.318;2022-09-11T21:54:05;993;;;10.2;100
45789;BME280;31492;54.856;26.318;2022-09-11T21:59:05;993;;;10.1;100
45789;BME280;31492;54.856;26.318;2022-09-11T22:04:05;992.9;;;10.2;100
45789;BME280;31492;54.856;26.318;2022-09-11T22:09:01;992.9;;;10.3;100
45789;BME280;31492;54.856;26.318;2022-09-11T22:14:01;992.9;;;10.4;100
45789;BME280;31492;54.856;26.318;2022-09-11T22:19:01;992.8;;;10.4;100
45789;BME280;31492;54.856;26.318;2022-09-11T22:24:07;992.8;;;10.4;100
45789;BME280;31492;54.856;26.318;2022-09-11T22:29:01;992.8;;;10.4;100
45789;BME280;31492;54.856;26.318;2022-09-11T22:34:01;992.8;;;10.4;100
45789;BME280;31492;54.856;26.318;2022-09-11T22:39:03;992.8;;;10.4;100
45789;BME280;31492;54.856;26.318;2022-09-11T22:44:03;992.8;;;10.4;100
